Airfield :
LOGIN :

Register | Disclaimer

   EN    FR    IT 

 










Legend :    VFR   Marginal VFR   IFR   Intensive IFR   Very Intensive IFR
Visi :
Ceiling :
>= 8 km
>= 3000ft
5 to 8 km
1000 to 3000 ft
1500m to 5 km
500 to 1000 ft
800 to 1500m
200 to 500 ft
< 800m
< 200 ft
Symbols :   Thunderstorms  Fog  Heavy snow  Heavy precipitations  Wind > 20 kt
SIGMETs :     Misc.  Thunderstorms  Icing  Turbulence  Mountain Waves  Volcanic Ashes






- Airport Elevation : 74 ft
- IATA code : LRH


LFBH - La Rochelle Ile de Ré

CURRENT METAR :
  • 021130Z AUTO 30009KT CAVOK 24/12 Q1020 NOSIG

EXPIRED METARs :
  • 021100Z AUTO 29008KT CAVOK 23/11 Q1020 NOSIG
  • 021030Z AUTO 30008KT 260V320 CAVOK 23/11 Q1020 NOSIG
  • 021000Z AUTO 31008KT CAVOK 22/12 Q1020 NOSIG
  • 020930Z AUTO 27006KT 250V310 CAVOK 22/12 Q1020 NOSIG
  • 020900Z AUTO VRB03KT CAVOK 23/13 Q1020 NOSIG

TAF AMD TAF LFBH
Valid from the 02 at 10:00 until the 03 at 06:00 UTC


021030Z 0210/0306 30010KT CAVOK
PROB30
TEMPO 0214/0218 30015G25KT
BECMG 0302/0304 36010KT
ATIS : +33 5 46 00 13 92



MET'MAP, your aeronautical weather chart ! - Copyright ORBIFLY December 2007 - Disclaimer

ORBIFLY MET'MAP TEAM :

Programming & Development : Alexandra Zaïnal
Original concept : Baudouin d'Aumeries
Technical & hardware support : Manuel Goepfert
Assistance : Marc-Olivier Méhu




SOURCES & CREDITS :

   NOAA